HVN1186 VVTS-VVCI
Flight info
| Callsign | HVN1186 |
|---|---|
| Flight time | 1h 45m |
| Altitude | 35000 |
| Route | PATMA5K PATMA Q2 BUVAN Q4 MAREL BATOT1A |
| Aircraft | A321/M-SDE3FGHIRWY/LB1 |
Departure
| Time | 2026-04-14 11:17 |
|---|---|
| Airport | Tan Son Nhat International Airport (VVTS) |
Arrival
| Time | 2026-04-14 13:03 |
|---|---|
| Airport | Cat Bi International Airport (VVCI) |
| Time | Latitude | Longitude | Altitude | Speed | Heading |
|---|---|---|---|---|---|
| 2026-04-14 10:30 | 10.81325 | 106.65486 | 35 ft | 0 kts | 158° |
| 2026-04-14 11:07 | 10.81336 | 106.65482 | 37 ft | 3 kts | 158° |
| 2026-04-14 11:07 | 10.81355 | 106.65474 | 37 ft | 3 kts | 158° |
| 2026-04-14 11:08 | 10.81371 | 106.65468 | 35 ft | 3 kts | 134° |
| 2026-04-14 11:08 | 10.81378 | 106.65453 | 37 ft | 3 kts | 82° |
| 2026-04-14 11:08 | 10.81373 | 106.65434 | 35 ft | 3 kts | 69° |
| 2026-04-14 11:08 | 10.81368 | 106.65422 | 35 ft | 0 kts | 69° |
| 2026-04-14 11:10 | 10.81370 | 106.65426 | 35 ft | 2 kts | 69° |
| 2026-04-14 11:11 | 10.81382 | 106.65459 | 37 ft | 9 kts | 69° |
| 2026-04-14 11:11 | 10.81412 | 106.65537 | 37 ft | 15 kts | 69° |
| 2026-04-14 11:11 | 10.81454 | 106.65650 | 37 ft | 18 kts | 69° |
| 2026-04-14 11:11 | 10.81494 | 106.65757 | 37 ft | 13 kts | 66° |
| 2026-04-14 11:12 | 10.81572 | 106.65796 | 37 ft | 14 kts | 6° |
| 2026-04-14 11:12 | 10.81667 | 106.65803 | 34 ft | 13 kts | 356° |
| 2026-04-14 11:12 | 10.81737 | 106.65796 | 34 ft | 9 kts | 18° |
| 2026-04-14 11:12 | 10.81773 | 106.65841 | 35 ft | 8 kts | 63° |
| 2026-04-14 11:13 | 10.81793 | 106.65891 | 34 ft | 8 kts | 68° |
| 2026-04-14 11:13 | 10.81812 | 106.65941 | 35 ft | 8 kts | 69° |
| 2026-04-14 11:13 | 10.81840 | 106.66015 | 36 ft | 15 kts | 69° |
| 2026-04-14 11:13 | 10.81885 | 106.66135 | 36 ft | 21 kts | 69° |
| 2026-04-14 11:14 | 10.81943 | 106.66291 | 37 ft | 24 kts | 69° |
| 2026-04-14 11:14 | 10.82005 | 106.66453 | 35 ft | 25 kts | 69° |
| 2026-04-14 11:14 | 10.82068 | 106.66621 | 34 ft | 25 kts | 69° |
| 2026-04-14 11:14 | 10.82132 | 106.66791 | 31 ft | 26 kts | 69° |
| 2026-04-14 11:15 | 10.82193 | 106.66952 | 34 ft | 13 kts | 69° |
| 2026-04-14 11:15 | 10.82241 | 106.67007 | 36 ft | 10 kts | 5° |
| 2026-04-14 11:15 | 10.82315 | 106.66982 | 35 ft | 12 kts | 321° |
| 2026-04-14 11:15 | 10.82349 | 106.66913 | 35 ft | 9 kts | 279° |
| 2026-04-14 11:16 | 10.82343 | 106.66879 | 34 ft | 1 kts | 250° |
| 2026-04-14 11:16 | 10.82332 | 106.66851 | 32 ft | 19 kts | 249° |
| 2026-04-14 11:16 | 10.82194 | 106.66485 | 33 ft | 89 kts | 249° |
| 2026-04-14 11:16 | 10.81899 | 106.65708 | 38 ft | 145 kts | 249° |
| 2026-04-14 11:17 | 10.81481 | 106.64602 | 45 ft | 187 kts | 246° |
| 2026-04-14 11:17 | 10.81012 | 106.63367 | 627 ft | 185 kts | 247° |
| 2026-04-14 11:17 | 10.80549 | 106.62143 | 1221 ft | 186 kts | 245° |
| 2026-04-14 11:17 | 10.80080 | 106.60922 | 1869 ft | 187 kts | 245° |
| 2026-04-14 11:18 | 10.79580 | 106.59617 | 2036 ft | 208 kts | 245° |
| 2026-04-14 11:18 | 10.79033 | 106.58183 | 2169 ft | 228 kts | 247° |
| 2026-04-14 11:18 | 10.78429 | 106.56601 | 2277 ft | 252 kts | 245° |
| 2026-04-14 11:18 | 10.77780 | 106.54900 | 2728 ft | 262 kts | 248° |
| 2026-04-14 11:19 | 10.77119 | 106.53157 | 3355 ft | 265 kts | 249° |
| 2026-04-14 11:19 | 10.76464 | 106.51422 | 3972 ft | 268 kts | 249° |
| 2026-04-14 11:19 | 10.75791 | 106.49635 | 4562 ft | 273 kts | 249° |
| 2026-04-14 11:19 | 10.75106 | 106.47822 | 5138 ft | 276 kts | 249° |
| 2026-04-14 11:20 | 10.74410 | 106.45985 | 5730 ft | 280 kts | 249° |
| 2026-04-14 11:20 | 10.73704 | 106.44127 | 6319 ft | 283 kts | 248° |
| 2026-04-14 11:20 | 10.72987 | 106.42242 | 6876 ft | 286 kts | 249° |
| 2026-04-14 11:20 | 10.72266 | 106.40343 | 7451 ft | 289 kts | 249° |
| 2026-04-14 11:21 | 10.71536 | 106.38424 | 7913 ft | 294 kts | 249° |
| 2026-04-14 11:21 | 10.70797 | 106.36485 | 7996 ft | 293 kts | 249° |
| 2026-04-14 11:21 | 10.70070 | 106.34578 | 8008 ft | 293 kts | 249° |
| 2026-04-14 11:21 | 10.69324 | 106.32621 | 8008 ft | 293 kts | 248° |
| 2026-04-14 11:22 | 10.68599 | 106.30710 | 8013 ft | 294 kts | 249° |
| 2026-04-14 11:22 | 10.67906 | 106.28738 | 8518 ft | 296 kts | 251° |
| 2026-04-14 11:22 | 10.67248 | 106.26743 | 9115 ft | 299 kts | 251° |
| 2026-04-14 11:22 | 10.66599 | 106.24727 | 9684 ft | 302 kts | 252° |
| 2026-04-14 11:23 | 10.65941 | 106.22683 | 10093 ft | 311 kts | 251° |
| 2026-04-14 11:23 | 10.65247 | 106.20540 | 10310 ft | 325 kts | 251° |
| 2026-04-14 11:23 | 10.64527 | 106.18342 | 10744 ft | 330 kts | 251° |
| 2026-04-14 11:23 | 10.63795 | 106.16125 | 11296 ft | 332 kts | 251° |
| 2026-04-14 11:24 | 10.63058 | 106.13897 | 11842 ft | 333 kts | 251° |
| 2026-04-14 11:24 | 10.62282 | 106.11679 | 12384 ft | 334 kts | 244° |
| 2026-04-14 11:24 | 10.60942 | 106.09773 | 12881 ft | 333 kts | 220° |
| 2026-04-14 11:24 | 10.58964 | 106.08575 | 13376 ft | 333 kts | 197° |
| 2026-04-14 11:25 | 10.56675 | 106.08293 | 13837 ft | 334 kts | 173° |
| 2026-04-14 11:25 | 10.54421 | 106.08874 | 14254 ft | 336 kts | 162° |
| 2026-04-14 11:25 | 10.52194 | 106.09630 | 14690 ft | 339 kts | 161° |
| 2026-04-14 11:25 | 10.49956 | 106.10398 | 15134 ft | 341 kts | 161° |
| 2026-04-14 11:26 | 10.47718 | 106.11227 | 15542 ft | 343 kts | 153° |
| 2026-04-14 11:26 | 10.45787 | 106.12653 | 15925 ft | 346 kts | 132° |
| 2026-04-14 11:26 | 10.44500 | 106.14677 | 16300 ft | 350 kts | 111° |
| 2026-04-14 11:26 | 10.43993 | 106.17117 | 16452 ft | 361 kts | 90° |
| 2026-04-14 11:27 | 10.44458 | 106.19650 | 16586 ft | 373 kts | 68° |
| 2026-04-14 11:27 | 10.45521 | 106.22093 | 16715 ft | 384 kts | 66° |
| 2026-04-14 11:27 | 10.46640 | 106.24602 | 16823 ft | 395 kts | 66° |
| 2026-04-14 11:27 | 10.47787 | 106.27181 | 16955 ft | 406 kts | 66° |
| 2026-04-14 11:28 | 10.48954 | 106.29821 | 17205 ft | 412 kts | 66° |
| 2026-04-14 11:28 | 10.50128 | 106.32492 | 17613 ft | 415 kts | 66° |
| 2026-04-14 11:28 | 10.51304 | 106.35179 | 18033 ft | 417 kts | 66° |
| 2026-04-14 11:28 | 10.52484 | 106.37885 | 18383 ft | 420 kts | 66° |
| 2026-04-14 11:29 | 10.53670 | 106.40605 | 18741 ft | 422 kts | 66° |
| 2026-04-14 11:29 | 10.54866 | 106.43341 | 19069 ft | 424 kts | 67° |
| 2026-04-14 11:29 | 10.56054 | 106.46051 | 19403 ft | 426 kts | 67° |
| 2026-04-14 11:29 | 10.57262 | 106.48808 | 19724 ft | 428 kts | 66° |
| 2026-04-14 11:30 | 10.58474 | 106.51577 | 20040 ft | 430 kts | 66° |
| 2026-04-14 11:30 | 10.59690 | 106.54360 | 20360 ft | 431 kts | 66° |
| 2026-04-14 11:30 | 10.60915 | 106.57154 | 20673 ft | 433 kts | 66° |
| 2026-04-14 11:30 | 10.62145 | 106.59959 | 20982 ft | 435 kts | 67° |
| 2026-04-14 11:31 | 10.63379 | 106.62775 | 21282 ft | 437 kts | 66° |
| 2026-04-14 11:31 | 10.64581 | 106.65628 | 21597 ft | 438 kts | 68° |
| 2026-04-14 11:31 | 10.65707 | 106.68519 | 21865 ft | 441 kts | 70° |
| 2026-04-14 11:31 | 10.66787 | 106.71440 | 22159 ft | 442 kts | 71° |
| 2026-04-14 11:32 | 10.67852 | 106.74377 | 22445 ft | 444 kts | 70° |
| 2026-04-14 11:32 | 10.68912 | 106.77291 | 22719 ft | 445 kts | 71° |
| 2026-04-14 11:32 | 10.69999 | 106.80245 | 23008 ft | 447 kts | 70° |
| 2026-04-14 11:32 | 10.71180 | 106.83177 | 23249 ft | 450 kts | 64° |
| 2026-04-14 11:33 | 10.72799 | 106.85908 | 23506 ft | 453 kts | 55° |
| 2026-04-14 11:33 | 10.74764 | 106.88421 | 23737 ft | 455 kts | 52° |
| 2026-04-14 11:33 | 10.76758 | 106.90930 | 23970 ft | 457 kts | 52° |
| 2026-04-14 11:34 | 10.80748 | 106.95996 | 24441 ft | 460 kts | 53° |
| 2026-04-14 11:34 | 10.82742 | 106.98545 | 24669 ft | 461 kts | 53° |
| 2026-04-14 11:34 | 10.84741 | 107.01103 | 24887 ft | 463 kts | 53° |
| 2026-04-14 11:34 | 10.86749 | 107.03672 | 25102 ft | 465 kts | 52° |
| 2026-04-14 11:35 | 10.88871 | 107.06161 | 25329 ft | 467 kts | 46° |
| 2026-04-14 11:35 | 10.91352 | 107.08301 | 25565 ft | 469 kts | 36° |
| 2026-04-14 11:35 | 10.94118 | 107.10079 | 25771 ft | 471 kts | 32° |
| 2026-04-14 11:35 | 10.96897 | 107.11780 | 25980 ft | 472 kts | 32° |
| 2026-04-14 11:36 | 10.99714 | 107.13507 | 26191 ft | 473 kts | 32° |
| 2026-04-14 11:36 | 11.02536 | 107.15243 | 26396 ft | 475 kts | 32° |
| 2026-04-14 11:36 | 11.05367 | 107.16985 | 26624 ft | 476 kts | 32° |
| 2026-04-14 11:36 | 11.08212 | 107.18732 | 26837 ft | 478 kts | 32° |
| 2026-04-14 11:37 | 11.11065 | 107.20486 | 27056 ft | 479 kts | 32° |
| 2026-04-14 11:37 | 11.13924 | 107.22247 | 27277 ft | 480 kts | 32° |
| 2026-04-14 11:37 | 11.16824 | 107.23951 | 27483 ft | 482 kts | 27° |
| 2026-04-14 11:37 | 11.19854 | 107.25435 | 27723 ft | 483 kts | 26° |
| 2026-04-14 11:38 | 11.22884 | 107.26909 | 28024 ft | 482 kts | 26° |
| 2026-04-14 11:38 | 11.25908 | 107.28375 | 28335 ft | 481 kts | 26° |
| 2026-04-14 11:38 | 11.27905 | 107.29341 | 28521 ft | 481 kts | 26° |
| 2026-04-14 11:38 | 11.30924 | 107.30805 | 28819 ft | 480 kts | 26° |
| 2026-04-14 11:39 | 11.33938 | 107.32271 | 29117 ft | 479 kts | 26° |
| 2026-04-14 11:39 | 11.36944 | 107.33736 | 29433 ft | 478 kts | 26° |
| 2026-04-14 11:39 | 11.39946 | 107.35199 | 29727 ft | 478 kts | 26° |
| 2026-04-14 11:39 | 11.42943 | 107.36660 | 30008 ft | 477 kts | 26° |
| 2026-04-14 11:40 | 11.45941 | 107.38121 | 30253 ft | 477 kts | 26° |
| 2026-04-14 11:40 | 11.48935 | 107.39578 | 30494 ft | 476 kts | 25° |
| 2026-04-14 11:40 | 11.51921 | 107.41028 | 30750 ft | 475 kts | 25° |
| 2026-04-14 11:40 | 11.54903 | 107.42478 | 30992 ft | 475 kts | 25° |
| 2026-04-14 11:41 | 11.57884 | 107.43932 | 31237 ft | 474 kts | 25° |
| 2026-04-14 11:41 | 11.60856 | 107.45386 | 31479 ft | 474 kts | 25° |
| 2026-04-14 11:41 | 11.63824 | 107.46840 | 31735 ft | 473 kts | 25° |
| 2026-04-14 11:41 | 11.66792 | 107.48292 | 31981 ft | 472 kts | 25° |
| 2026-04-14 11:42 | 11.69756 | 107.49739 | 32221 ft | 472 kts | 25° |
| 2026-04-14 11:42 | 11.72714 | 107.51180 | 32468 ft | 471 kts | 25° |
| 2026-04-14 11:42 | 11.75630 | 107.52599 | 32682 ft | 471 kts | 25° |
| 2026-04-14 11:42 | 11.78591 | 107.54042 | 32922 ft | 470 kts | 25° |
| 2026-04-14 11:43 | 11.81540 | 107.55483 | 33148 ft | 470 kts | 25° |
| 2026-04-14 11:43 | 11.84488 | 107.56925 | 33379 ft | 469 kts | 25° |
| 2026-04-14 11:43 | 11.87429 | 107.58366 | 33591 ft | 469 kts | 25° |
| 2026-04-14 11:43 | 11.90374 | 107.59809 | 33823 ft | 469 kts | 25° |
| 2026-04-14 11:44 | 11.93317 | 107.61250 | 34021 ft | 469 kts | 25° |
| 2026-04-14 11:44 | 11.96254 | 107.62686 | 34210 ft | 468 kts | 25° |
| 2026-04-14 11:44 | 11.99196 | 107.64123 | 34397 ft | 468 kts | 25° |
| 2026-04-14 11:44 | 12.02137 | 107.65560 | 34581 ft | 468 kts | 25° |
| 2026-04-14 11:45 | 12.05075 | 107.66995 | 34778 ft | 467 kts | 25° |
| 2026-04-14 11:45 | 12.08022 | 107.68437 | 34883 ft | 468 kts | 25° |
| 2026-04-14 11:45 | 12.10958 | 107.69875 | 34911 ft | 469 kts | 25° |
| 2026-04-14 11:46 | 12.16805 | 107.72738 | 34912 ft | 469 kts | 25° |
| 2026-04-14 11:46 | 12.22690 | 107.75617 | 34902 ft | 469 kts | 24° |
| 2026-04-14 11:47 | 12.28563 | 107.78504 | 34901 ft | 468 kts | 25° |
| 2026-04-14 11:47 | 12.34661 | 107.80736 | 34891 ft | 466 kts | 8° |
| 2026-04-14 11:48 | 12.41107 | 107.81142 | 34893 ft | 464 kts | 0° |
| 2026-04-14 11:48 | 12.47565 | 107.81263 | 34880 ft | 465 kts | 0° |
| 2026-04-14 11:49 | 12.53990 | 107.81405 | 34885 ft | 465 kts | 0° |
| 2026-04-14 11:49 | 12.60467 | 107.81538 | 34880 ft | 466 kts | 360° |
| 2026-04-14 11:50 | 12.66949 | 107.81657 | 34885 ft | 466 kts | 360° |
| 2026-04-14 11:50 | 12.73440 | 107.81786 | 34881 ft | 466 kts | 0° |
| 2026-04-14 11:51 | 12.83171 | 107.81980 | 34884 ft | 466 kts | 360° |
| 2026-04-14 11:51 | 12.89669 | 107.82103 | 34880 ft | 467 kts | 0° |
| 2026-04-14 11:52 | 12.96171 | 107.82229 | 34875 ft | 468 kts | 1° |
| 2026-04-14 11:52 | 13.02689 | 107.82360 | 34876 ft | 468 kts | 0° |
| 2026-04-14 11:53 | 13.09214 | 107.82493 | 34877 ft | 469 kts | 360° |
| 2026-04-14 11:53 | 13.15739 | 107.82626 | 34882 ft | 469 kts | 0° |
| 2026-04-14 11:54 | 13.22270 | 107.82757 | 34887 ft | 469 kts | 1° |
| 2026-04-14 11:54 | 13.28768 | 107.82889 | 34894 ft | 470 kts | 0° |
| 2026-04-14 11:55 | 13.35306 | 107.83014 | 34895 ft | 470 kts | 0° |
| 2026-04-14 11:55 | 13.41845 | 107.83147 | 34894 ft | 470 kts | 0° |
| 2026-04-14 11:56 | 13.48383 | 107.83288 | 34903 ft | 470 kts | 0° |
| 2026-04-14 11:56 | 13.54918 | 107.83428 | 34903 ft | 470 kts | 0° |
| 2026-04-14 11:57 | 13.61460 | 107.83569 | 34917 ft | 470 kts | 1° |
| 2026-04-14 11:57 | 13.68000 | 107.83702 | 34916 ft | 470 kts | 0° |
| 2026-04-14 11:58 | 13.74500 | 107.83828 | 34929 ft | 470 kts | 0° |
| 2026-04-14 11:58 | 13.81040 | 107.83962 | 34928 ft | 470 kts | 0° |
| 2026-04-14 11:59 | 13.87586 | 107.84111 | 34939 ft | 470 kts | 0° |
| 2026-04-14 11:59 | 13.94127 | 107.84252 | 34946 ft | 470 kts | 0° |
| 2026-04-14 12:00 | 14.00680 | 107.84384 | 34953 ft | 470 kts | 0° |
| 2026-04-14 12:00 | 14.07220 | 107.84424 | 34954 ft | 470 kts | 359° |
| 2026-04-14 12:01 | 14.13768 | 107.84386 | 34957 ft | 470 kts | 359° |
| 2026-04-14 12:01 | 14.20271 | 107.84356 | 34956 ft | 470 kts | 359° |
| 2026-04-14 12:02 | 14.26812 | 107.84353 | 34965 ft | 470 kts | 359° |
| 2026-04-14 12:02 | 14.33356 | 107.84364 | 34963 ft | 470 kts | 359° |
| 2026-04-14 12:03 | 14.39898 | 107.84373 | 34962 ft | 470 kts | 359° |
| 2026-04-14 12:03 | 14.46443 | 107.84370 | 34961 ft | 470 kts | 359° |
| 2026-04-14 12:04 | 14.52988 | 107.84362 | 34970 ft | 470 kts | 359° |
| 2026-04-14 12:04 | 14.59534 | 107.84361 | 34969 ft | 470 kts | 359° |
| 2026-04-14 12:05 | 14.66083 | 107.84363 | 34981 ft | 470 kts | 359° |
| 2026-04-14 12:05 | 14.72631 | 107.84362 | 34980 ft | 470 kts | 359° |
| 2026-04-14 12:06 | 14.79142 | 107.84363 | 34991 ft | 470 kts | 359° |
| 2026-04-14 12:06 | 14.85682 | 107.84360 | 34991 ft | 470 kts | 359° |
| 2026-04-14 12:07 | 14.92226 | 107.84428 | 34991 ft | 470 kts | 1° |
| 2026-04-14 12:07 | 14.98771 | 107.84706 | 34993 ft | 471 kts | 2° |
| 2026-04-14 12:08 | 15.05313 | 107.85023 | 34991 ft | 471 kts | 1° |
| 2026-04-14 12:08 | 15.11864 | 107.85289 | 34986 ft | 471 kts | 1° |
| 2026-04-14 12:09 | 15.18409 | 107.85532 | 34987 ft | 471 kts | 1° |
| 2026-04-14 12:09 | 15.24962 | 107.85770 | 34969 ft | 471 kts | 1° |
| 2026-04-14 12:10 | 15.31514 | 107.86011 | 34962 ft | 471 kts | 1° |
| 2026-04-14 12:10 | 15.38072 | 107.86269 | 34933 ft | 472 kts | 1° |
| 2026-04-14 12:11 | 15.44643 | 107.86521 | 34933 ft | 472 kts | 1° |
| 2026-04-14 12:11 | 15.51221 | 107.86770 | 34908 ft | 473 kts | 1° |
| 2026-04-14 12:12 | 15.57803 | 107.87025 | 34911 ft | 473 kts | 1° |
| 2026-04-14 12:12 | 15.64378 | 107.87274 | 34900 ft | 472 kts | 1° |
| 2026-04-14 12:13 | 15.70903 | 107.87515 | 34898 ft | 472 kts | 1° |
| 2026-04-14 12:13 | 15.77457 | 107.87771 | 34887 ft | 471 kts | 1° |
| 2026-04-14 12:14 | 15.84009 | 107.88020 | 34888 ft | 471 kts | 1° |
| 2026-04-14 12:14 | 15.90560 | 107.88271 | 34876 ft | 471 kts | 1° |
| 2026-04-14 12:15 | 15.97042 | 107.87754 | 34874 ft | 466 kts | 344° |
| 2026-04-14 12:15 | 16.03037 | 107.85295 | 34862 ft | 463 kts | 333° |
| 2026-04-14 12:16 | 16.08856 | 107.82423 | 34860 ft | 463 kts | 333° |
| 2026-04-14 12:16 | 16.14685 | 107.79565 | 34839 ft | 463 kts | 333° |
| 2026-04-14 12:17 | 16.20522 | 107.76704 | 34818 ft | 464 kts | 333° |
| 2026-04-14 12:17 | 16.26351 | 107.73837 | 34810 ft | 463 kts | 333° |
| 2026-04-14 12:18 | 16.32184 | 107.70969 | 34804 ft | 464 kts | 333° |
| 2026-04-14 12:18 | 16.38016 | 107.68086 | 34801 ft | 464 kts | 333° |
| 2026-04-14 12:19 | 16.43813 | 107.65222 | 34798 ft | 464 kts | 333° |
| 2026-04-14 12:19 | 16.49647 | 107.62339 | 34800 ft | 464 kts | 333° |
| 2026-04-14 12:20 | 16.55487 | 107.59463 | 34802 ft | 464 kts | 333° |
| 2026-04-14 12:20 | 16.61342 | 107.56597 | 34802 ft | 464 kts | 333° |
| 2026-04-14 12:21 | 16.67185 | 107.53728 | 34799 ft | 464 kts | 333° |
| 2026-04-14 12:21 | 16.73024 | 107.50854 | 34805 ft | 464 kts | 332° |
| 2026-04-14 12:22 | 16.78867 | 107.47981 | 34807 ft | 464 kts | 332° |
| 2026-04-14 12:22 | 16.84706 | 107.45108 | 34807 ft | 464 kts | 332° |
| 2026-04-14 12:23 | 16.90545 | 107.42229 | 34804 ft | 464 kts | 332° |
| 2026-04-14 12:23 | 16.96389 | 107.39348 | 34807 ft | 464 kts | 333° |
| 2026-04-14 12:24 | 17.02238 | 107.36469 | 34815 ft | 464 kts | 333° |
| 2026-04-14 12:24 | 17.08064 | 107.33564 | 34816 ft | 464 kts | 332° |
| 2026-04-14 12:25 | 17.13879 | 107.30620 | 34818 ft | 464 kts | 332° |
| 2026-04-14 12:25 | 17.18704 | 107.28178 | 34819 ft | 463 kts | 332° |
| 2026-04-14 12:26 | 17.25461 | 107.24779 | 34816 ft | 463 kts | 333° |
| 2026-04-14 12:26 | 17.31270 | 107.21850 | 34816 ft | 463 kts | 333° |
| 2026-04-14 12:27 | 17.36131 | 107.19392 | 34824 ft | 463 kts | 332° |
| 2026-04-14 12:27 | 17.41903 | 107.16476 | 34824 ft | 463 kts | 332° |
| 2026-04-14 12:28 | 17.47696 | 107.13551 | 34827 ft | 462 kts | 330° |
| 2026-04-14 12:28 | 17.53482 | 107.10622 | 34824 ft | 462 kts | 332° |
| 2026-04-14 12:29 | 17.59265 | 107.07689 | 34826 ft | 461 kts | 331° |
| 2026-04-14 12:29 | 17.65042 | 107.04766 | 34826 ft | 461 kts | 332° |
| 2026-04-14 12:30 | 17.70811 | 107.01844 | 34833 ft | 461 kts | 332° |
| 2026-04-14 12:30 | 17.76588 | 106.98920 | 34830 ft | 461 kts | 332° |
| 2026-04-14 12:31 | 17.82362 | 106.95986 | 34826 ft | 461 kts | 332° |
| 2026-04-14 12:31 | 17.88141 | 106.93051 | 34826 ft | 461 kts | 332° |
| 2026-04-14 12:32 | 17.93920 | 106.90130 | 34827 ft | 461 kts | 331° |
| 2026-04-14 12:32 | 17.99709 | 106.87226 | 34830 ft | 461 kts | 332° |
| 2026-04-14 12:33 | 18.05491 | 106.84318 | 34831 ft | 461 kts | 332° |
| 2026-04-14 12:33 | 18.11268 | 106.81399 | 34828 ft | 460 kts | 333° |
| 2026-04-14 12:34 | 18.17008 | 106.78494 | 34829 ft | 460 kts | 332° |
| 2026-04-14 12:34 | 18.22784 | 106.75572 | 34823 ft | 461 kts | 332° |
| 2026-04-14 12:35 | 18.28563 | 106.72644 | 34824 ft | 461 kts | 332° |
| 2026-04-14 12:35 | 18.34340 | 106.69719 | 34828 ft | 461 kts | 331° |
| 2026-04-14 12:36 | 18.40122 | 106.66789 | 34824 ft | 461 kts | 332° |
| 2026-04-14 12:36 | 18.45903 | 106.63865 | 34825 ft | 461 kts | 331° |
| 2026-04-14 12:37 | 18.51708 | 106.60983 | 34810 ft | 462 kts | 336° |
| 2026-04-14 12:37 | 18.58017 | 106.59603 | 34806 ft | 468 kts | 356° |
| 2026-04-14 12:38 | 18.67738 | 106.60799 | 34800 ft | 472 kts | 6° |
| 2026-04-14 12:39 | 18.74246 | 106.61808 | 34809 ft | 472 kts | 5° |
| 2026-04-14 12:39 | 18.80754 | 106.62814 | 34803 ft | 473 kts | 5° |
| 2026-04-14 12:40 | 18.87262 | 106.63828 | 34806 ft | 473 kts | 6° |
| 2026-04-14 12:40 | 18.90515 | 106.64336 | 34680 ft | 473 kts | 5° |
| 2026-04-14 12:40 | 18.93774 | 106.64844 | 34222 ft | 473 kts | 6° |
| 2026-04-14 12:40 | 18.97030 | 106.65349 | 33715 ft | 473 kts | 6° |
| 2026-04-14 12:41 | 19.00286 | 106.65855 | 33154 ft | 474 kts | 5° |
| 2026-04-14 12:41 | 19.03552 | 106.66362 | 32607 ft | 474 kts | 5° |
| 2026-04-14 12:41 | 19.06816 | 106.66869 | 32065 ft | 474 kts | 5° |
| 2026-04-14 12:41 | 19.10041 | 106.67370 | 31540 ft | 475 kts | 5° |
| 2026-04-14 12:42 | 19.13318 | 106.67881 | 31021 ft | 476 kts | 6° |
| 2026-04-14 12:42 | 19.16599 | 106.68392 | 30504 ft | 477 kts | 5° |
| 2026-04-14 12:42 | 19.19890 | 106.68903 | 30000 ft | 478 kts | 6° |
| 2026-04-14 12:42 | 19.23187 | 106.69343 | 29439 ft | 477 kts | 1° |
| 2026-04-14 12:43 | 19.26498 | 106.69445 | 28861 ft | 477 kts | 358° |
| 2026-04-14 12:43 | 19.29822 | 106.69514 | 28297 ft | 478 kts | 358° |
| 2026-04-14 12:43 | 19.33154 | 106.69582 | 27736 ft | 480 kts | 358° |
| 2026-04-14 12:43 | 19.36502 | 106.69650 | 27199 ft | 480 kts | 358° |
| 2026-04-14 12:44 | 19.39833 | 106.69720 | 26665 ft | 478 kts | 358° |
| 2026-04-14 12:44 | 19.43149 | 106.69790 | 26138 ft | 474 kts | 358° |
| 2026-04-14 12:44 | 19.46440 | 106.69861 | 25622 ft | 471 kts | 358° |
| 2026-04-14 12:45 | 19.52980 | 106.70001 | 24616 ft | 468 kts | 358° |
| 2026-04-14 12:45 | 19.56188 | 106.70069 | 24110 ft | 450 kts | 358° |
| 2026-04-14 12:45 | 19.59232 | 106.70138 | 23637 ft | 426 kts | 358° |
| 2026-04-14 12:45 | 19.62090 | 106.70207 | 23129 ft | 408 kts | 358° |
| 2026-04-14 12:46 | 19.64927 | 106.70271 | 22578 ft | 408 kts | 358° |
| 2026-04-14 12:46 | 19.67757 | 106.70329 | 22030 ft | 405 kts | 358° |
| 2026-04-14 12:46 | 19.70562 | 106.70384 | 21482 ft | 400 kts | 358° |
| 2026-04-14 12:46 | 19.73332 | 106.70440 | 20945 ft | 396 kts | 358° |
| 2026-04-14 12:47 | 19.76072 | 106.70495 | 20414 ft | 391 kts | 358° |
| 2026-04-14 12:47 | 19.78779 | 106.70549 | 19901 ft | 387 kts | 358° |
| 2026-04-14 12:47 | 19.81451 | 106.70607 | 19381 ft | 382 kts | 358° |
| 2026-04-14 12:47 | 19.84091 | 106.70666 | 18887 ft | 378 kts | 358° |
| 2026-04-14 12:48 | 19.86707 | 106.70721 | 18393 ft | 373 kts | 358° |
| 2026-04-14 12:48 | 19.89290 | 106.70777 | 17881 ft | 369 kts | 358° |
| 2026-04-14 12:48 | 19.91850 | 106.70834 | 17318 ft | 366 kts | 358° |
| 2026-04-14 12:48 | 19.94378 | 106.70890 | 16769 ft | 361 kts | 358° |
| 2026-04-14 12:49 | 19.96877 | 106.70942 | 16230 ft | 358 kts | 358° |
| 2026-04-14 12:49 | 19.99353 | 106.70990 | 15699 ft | 354 kts | 358° |
| 2026-04-14 12:49 | 20.01808 | 106.71039 | 15180 ft | 350 kts | 358° |
| 2026-04-14 12:49 | 20.04234 | 106.71090 | 14667 ft | 347 kts | 358° |
| 2026-04-14 12:50 | 20.06639 | 106.71140 | 14155 ft | 344 kts | 357° |
| 2026-04-14 12:50 | 20.11379 | 106.71239 | 13114 ft | 338 kts | 358° |
| 2026-04-14 12:50 | 20.13725 | 106.71291 | 12575 ft | 335 kts | 358° |
| 2026-04-14 12:51 | 20.16052 | 106.71340 | 12024 ft | 333 kts | 358° |
| 2026-04-14 12:51 | 20.18367 | 106.71386 | 11490 ft | 332 kts | 358° |
| 2026-04-14 12:51 | 20.20666 | 106.71412 | 10966 ft | 329 kts | 354° |
| 2026-04-14 12:51 | 20.22901 | 106.71056 | 10451 ft | 323 kts | 341° |
| 2026-04-14 12:52 | 20.25049 | 106.70372 | 9943 ft | 321 kts | 340° |
| 2026-04-14 12:52 | 20.27136 | 106.69697 | 9418 ft | 312 kts | 340° |
| 2026-04-14 12:52 | 20.29200 | 106.69030 | 8866 ft | 301 kts | 340° |
| 2026-04-14 12:52 | 20.31153 | 106.68399 | 8337 ft | 296 kts | 340° |
| 2026-04-14 12:53 | 20.33145 | 106.67751 | 7824 ft | 302 kts | 340° |
| 2026-04-14 12:53 | 20.35170 | 106.67091 | 7298 ft | 305 kts | 340° |
| 2026-04-14 12:53 | 20.37170 | 106.66442 | 6776 ft | 296 kts | 340° |
| 2026-04-14 12:53 | 20.39137 | 106.65806 | 6276 ft | 295 kts | 340° |
| 2026-04-14 12:54 | 20.41102 | 106.65174 | 6011 ft | 293 kts | 341° |
| 2026-04-14 12:54 | 20.43062 | 106.64543 | 5974 ft | 294 kts | 341° |
| 2026-04-14 12:54 | 20.45023 | 106.63910 | 5979 ft | 295 kts | 341° |
| 2026-04-14 12:54 | 20.46986 | 106.63276 | 5979 ft | 295 kts | 341° |
| 2026-04-14 12:55 | 20.48955 | 106.62638 | 5953 ft | 295 kts | 341° |
| 2026-04-14 12:55 | 20.50919 | 106.62002 | 5739 ft | 294 kts | 341° |
| 2026-04-14 12:55 | 20.52870 | 106.61369 | 5502 ft | 293 kts | 341° |
| 2026-04-14 12:55 | 20.54813 | 106.60736 | 5267 ft | 291 kts | 341° |
| 2026-04-14 12:56 | 20.56747 | 106.60107 | 5029 ft | 290 kts | 341° |
| 2026-04-14 12:56 | 20.58674 | 106.59482 | 4797 ft | 289 kts | 341° |
| 2026-04-14 12:56 | 20.60594 | 106.58860 | 4588 ft | 288 kts | 341° |
| 2026-04-14 12:56 | 20.62513 | 106.58240 | 4373 ft | 287 kts | 342° |
| 2026-04-14 12:57 | 20.64424 | 106.57622 | 4159 ft | 286 kts | 341° |
| 2026-04-14 12:57 | 20.66240 | 106.56800 | 3944 ft | 281 kts | 333° |
| 2026-04-14 12:57 | 20.67969 | 106.55923 | 3725 ft | 269 kts | 333° |
| 2026-04-14 12:57 | 20.69602 | 106.55096 | 3510 ft | 257 kts | 333° |
| 2026-04-14 12:58 | 20.71281 | 106.54528 | 3173 ft | 246 kts | 352° |
| 2026-04-14 12:58 | 20.72948 | 106.54530 | 3085 ft | 232 kts | 9° |
| 2026-04-14 12:58 | 20.74425 | 106.54979 | 2974 ft | 212 kts | 26° |
| 2026-04-14 12:58 | 20.75652 | 106.55749 | 2805 ft | 199 kts | 41° |
| 2026-04-14 12:59 | 20.76613 | 106.56743 | 2627 ft | 188 kts | 56° |
| 2026-04-14 12:59 | 20.77297 | 106.57878 | 2428 ft | 177 kts | 70° |
| 2026-04-14 12:59 | 20.77719 | 106.59076 | 2242 ft | 168 kts | 78° |
| 2026-04-14 12:59 | 20.78066 | 106.60222 | 2029 ft | 158 kts | 78° |
| 2026-04-14 13:00 | 20.78394 | 106.61314 | 1816 ft | 153 kts | 78° |
| 2026-04-14 13:00 | 20.78715 | 106.62386 | 1627 ft | 150 kts | 76° |
| 2026-04-14 13:00 | 20.79031 | 106.63439 | 1432 ft | 148 kts | 77° |
| 2026-04-14 13:00 | 20.79342 | 106.64473 | 1247 ft | 145 kts | 77° |
| 2026-04-14 13:01 | 20.79648 | 106.65493 | 1053 ft | 143 kts | 76° |
| 2026-04-14 13:01 | 20.79953 | 106.66513 | 895 ft | 146 kts | 76° |
| 2026-04-14 13:01 | 20.80268 | 106.67539 | 737 ft | 144 kts | 75° |
| 2026-04-14 13:01 | 20.80564 | 106.68546 | 580 ft | 141 kts | 77° |
| 2026-04-14 13:02 | 20.80866 | 106.69563 | 362 ft | 145 kts | 76° |
| 2026-04-14 13:02 | 20.81180 | 106.70581 | 156 ft | 142 kts | 76° |
| 2026-04-14 13:02 | 20.81469 | 106.71575 | 27 ft | 129 kts | 73° |
| 2026-04-14 13:02 | 20.81694 | 106.72322 | 24 ft | 81 kts | 72° |
| 2026-04-14 13:03 | 20.81821 | 106.72751 | 26 ft | 51 kts | 72° |
| 2026-04-14 13:03 | 20.81924 | 106.73087 | 27 ft | 44 kts | 72° |
| 2026-04-14 13:03 | 20.82013 | 106.73386 | 28 ft | 40 kts | 72° |
| 2026-04-14 13:03 | 20.82084 | 106.73617 | 24 ft | 16 kts | 67° |
| 2026-04-14 13:04 | 20.82151 | 106.73706 | 30 ft | 15 kts | 40° |
| 2026-04-14 13:04 | 20.82229 | 106.73734 | 29 ft | 12 kts | 347° |
| 2026-04-14 13:04 | 20.82228 | 106.73672 | 25 ft | 11 kts | 204° |
| 2026-04-14 13:04 | 20.82142 | 106.73683 | 25 ft | 14 kts | 168° |
| 2026-04-14 13:05 | 20.82085 | 106.73616 | 24 ft | 14 kts | 244° |
| 2026-04-14 13:05 | 20.82047 | 106.73500 | 24 ft | 19 kts | 251° |
| 2026-04-14 13:05 | 20.82007 | 106.73366 | 28 ft | 19 kts | 253° |
| 2026-04-14 13:05 | 20.81962 | 106.73216 | 27 ft | 24 kts | 252° |
| 2026-04-14 13:06 | 20.81909 | 106.73038 | 28 ft | 25 kts | 252° |
| 2026-04-14 13:06 | 20.81850 | 106.72844 | 26 ft | 31 kts | 252° |
| 2026-04-14 13:06 | 20.81782 | 106.72615 | 26 ft | 33 kts | 252° |
| 2026-04-14 13:06 | 20.81718 | 106.72400 | 24 ft | 23 kts | 252° |
| 2026-04-14 13:07 | 20.81732 | 106.72297 | 26 ft | 12 kts | 324° |
| 2026-04-14 13:07 | 20.81817 | 106.72266 | 24 ft | 14 kts | 342° |
| 2026-04-14 13:07 | 20.81908 | 106.72236 | 25 ft | 13 kts | 343° |
| 2026-04-14 13:07 | 20.81966 | 106.72279 | 25 ft | 12 kts | 69° |
| 2026-04-14 13:08 | 20.82002 | 106.72339 | 25 ft | 9 kts | 14° |
| 2026-04-14 13:08 | 20.82057 | 106.72326 | 25 ft | 6 kts | 341° |
| 2026-04-14 13:08 | 20.82074 | 106.72320 | 25 ft | 1 kts | 342° |
| 2026-04-14 13:08 | 20.82086 | 106.72316 | 25 ft | 1 kts | 342° |
| 2026-04-14 13:09 | 20.82092 | 106.72314 | 25 ft | 0 kts | 342° |